createdAt,value
2023-02-19T00:01:28.817Z,12.46
2023-02-19T00:03:58.057Z,11.97
2023-02-19T00:06:26.819Z,12.03
2023-02-19T00:08:53.923Z,11.72
2023-02-19T00:11:23.030Z,11.89
2023-02-19T00:13:52.694Z,11.31
2023-02-19T00:16:25.540Z,11.79
2023-02-19T00:18:53.748Z,11.77
2023-02-19T00:21:20.506Z,11.81
2023-02-19T00:23:55.718Z,11.86
2023-02-19T00:26:22.724Z,11.04
2023-02-19T00:28:51.691Z,11.48
2023-02-19T00:31:27.745Z,11.63
2023-02-19T00:34:01.503Z,10.71
2023-02-19T00:36:28.992Z,11.11
2023-02-19T00:38:55.732Z,10.15
2023-02-19T00:41:24.188Z,11.23
2023-02-19T00:43:56.702Z,10.75
2023-02-19T00:46:29.249Z,11.21
2023-02-19T00:48:56.789Z,10.74
2023-02-19T00:51:27.014Z,11.04
2023-02-19T00:53:54.365Z,11.20
2023-02-19T00:56:21.681Z,10.39
2023-02-19T00:58:49.182Z,9.99
2023-02-19T01:01:16.585Z,10.03
2023-02-19T01:03:45.096Z,10.72
2023-02-19T01:06:13.900Z,10.24
2023-02-19T01:08:40.923Z,10.84
2023-02-19T01:11:09.313Z,10.99
2023-02-19T01:13:36.941Z,11.00
2023-02-19T01:16:24.850Z,11.00
2023-02-19T01:18:52.277Z,11.01
2023-02-19T01:21:22.067Z,11.05
2023-02-19T01:23:50.328Z,11.22
2023-02-19T01:26:20.018Z,11.29
2023-02-19T01:28:47.570Z,11.18
2023-02-19T01:31:17.155Z,11.19
2023-02-19T01:33:48.762Z,11.25
2023-02-19T01:36:16.152Z,11.07
2023-02-19T01:38:43.800Z,10.21
2023-02-19T01:41:13.710Z,10.44
2023-02-19T01:44:01.224Z,10.68
2023-02-19T01:46:33.241Z,10.68
2023-02-19T01:49:24.185Z,10.81
2023-02-19T01:51:57.172Z,9.95
2023-02-19T01:54:28.595Z,10.32
2023-02-19T01:56:56.952Z,10.51
2023-02-19T01:59:24.998Z,10.33
2023-02-19T02:01:52.643Z,10.45
2023-02-19T02:04:19.682Z,9.95
2023-02-19T02:06:57.150Z,9.69
2023-02-19T02:09:46.492Z,9.77
2023-02-19T02:12:13.954Z,9.82
2023-02-19T02:14:45.211Z,10.08
2023-02-19T02:17:12.517Z,10.03
2023-02-19T02:20:05.310Z,10.21
2023-02-19T02:22:32.118Z,10.44
2023-02-19T02:25:14.238Z,10.19
2023-02-19T02:27:49.466Z,10.60
2023-02-19T02:30:19.669Z,10.30
2023-02-19T02:32:57.678Z,10.64
2023-02-19T02:35:39.858Z,10.83
2023-02-19T02:38:10.015Z,10.56
2023-02-19T02:40:41.528Z,10.71
2023-02-19T02:43:08.696Z,10.54
2023-02-19T02:45:35.816Z,10.37
2023-02-19T02:48:26.769Z,10.12
2023-02-19T02:51:00.320Z,10.52
2023-02-19T02:54:03.330Z,10.62
2023-02-19T02:56:31.561Z,10.99
2023-02-19T02:59:00.909Z,11.11
2023-02-19T03:01:52.214Z,11.02
2023-02-19T03:04:27.406Z,11.28
2023-02-19T03:06:57.114Z,11.30
2023-02-19T03:09:32.227Z,11.00
2023-02-19T03:12:22.232Z,11.16
2023-02-19T03:15:13.398Z,11.10
2023-02-19T03:18:06.532Z,10.95
2023-02-19T03:20:39.012Z,10.66
2023-02-19T03:23:09.383Z,10.57
2023-02-19T03:25:57.253Z,10.32
2023-02-19T03:28:58.055Z,10.52
2023-02-19T03:31:29.700Z,9.43
2023-02-19T03:34:06.972Z,9.82
2023-02-19T03:36:52.847Z,10.22
2023-02-19T03:39:23.366Z,10.08
2023-02-19T03:42:04.173Z,10.47
2023-02-19T03:44:44.369Z,10.12
2023-02-19T03:47:23.064Z,10.48
2023-02-19T03:49:52.105Z,10.27
2023-02-19T03:52:47.303Z,10.14
2023-02-19T03:55:19.314Z,10.38
2023-02-19T03:58:08.070Z,10.26
2023-02-19T04:00:54.546Z,10.35
2023-02-19T04:03:31.509Z,9.90
2023-02-19T04:06:05.809Z,10.19
2023-02-19T04:08:36.244Z,10.01
2023-02-19T04:11:06.421Z,9.68
2023-02-19T04:13:44.509Z,9.82
2023-02-19T04:16:17.972Z,9.31
2023-02-19T04:18:48.921Z,9.98
2023-02-19T04:21:16.150Z,9.31
2023-02-19T04:23:45.454Z,9.52
2023-02-19T04:26:15.267Z,9.58
2023-02-19T04:28:44.171Z,9.72
2023-02-19T04:31:11.699Z,9.57
2023-02-19T04:33:38.840Z,9.18
2023-02-19T04:36:07.449Z,9.37
2023-02-19T04:38:34.488Z,9.40
2023-02-19T04:41:01.128Z,9.50
2023-02-19T04:43:27.891Z,9.48
2023-02-19T04:45:54.895Z,9.16
2023-02-19T04:48:21.895Z,9.27
2023-02-19T04:50:48.623Z,9.54
2023-02-19T04:53:15.486Z,9.33
2023-02-19T04:55:42.127Z,8.96
2023-02-19T04:58:08.916Z,9.03
2023-02-19T05:00:35.773Z,9.29
2023-02-19T05:03:02.736Z,9.55
2023-02-19T05:05:29.708Z,9.49
2023-02-19T05:07:56.416Z,9.36
2023-02-19T05:10:23.231Z,9.96
2023-02-19T05:12:50.013Z,10.17
2023-02-19T05:15:16.718Z,9.82
2023-02-19T05:17:43.597Z,9.90
2023-02-19T05:20:10.673Z,10.07
2023-02-19T05:22:43.249Z,10.02
2023-02-19T05:25:10.032Z,9.55
2023-02-19T05:27:37.904Z,9.70
2023-02-19T05:30:05.040Z,10.02
2023-02-19T05:32:32.001Z,9.70
2023-02-19T05:34:58.830Z,9.33
2023-02-19T05:37:25.579Z,9.65
2023-02-19T05:39:52.481Z,9.97
2023-02-19T05:42:19.212Z,9.88
2023-02-19T05:44:46.097Z,10.00
2023-02-19T05:47:13.144Z,10.22
2023-02-19T05:49:40.047Z,10.06
2023-02-19T05:52:06.899Z,9.76
2023-02-19T05:54:33.748Z,9.92
2023-02-19T05:57:00.624Z,10.03
2023-02-19T05:59:27.788Z,9.92
2023-02-19T06:01:55.819Z,10.02
2023-02-19T06:04:23.485Z,10.35
2023-02-19T06:06:50.471Z,10.50
2023-02-19T06:09:17.700Z,10.36
2023-02-19T06:11:44.766Z,10.63
2023-02-19T06:14:14.615Z,10.68
2023-02-19T06:16:42.366Z,10.83
2023-02-19T06:19:09.140Z,10.85
2023-02-19T06:21:36.092Z,10.84
2023-02-19T06:24:07.812Z,10.94
2023-02-19T06:26:34.981Z,10.77
2023-02-19T06:29:01.918Z,11.12
2023-02-19T06:31:28.956Z,10.99
2023-02-19T06:33:55.997Z,11.29
2023-02-19T06:36:23.322Z,11.45
2023-02-19T06:38:50.502Z,11.54
2023-02-19T06:41:18.158Z,11.56
2023-02-19T06:43:46.475Z,11.80
2023-02-19T06:46:13.736Z,12.04
2023-02-19T06:48:42.089Z,12.21
2023-02-19T06:51:12.963Z,12.50
2023-02-19T06:53:39.889Z,12.49
2023-02-19T06:56:22.512Z,12.45
2023-02-19T06:58:49.418Z,12.87
2023-02-19T07:01:16.264Z,13.07
2023-02-19T07:03:43.239Z,12.93
2023-02-19T07:06:10.099Z,13.14
2023-02-19T07:08:37.142Z,13.14
2023-02-19T07:11:03.992Z,13.46
2023-02-19T07:13:31.134Z,13.47
2023-02-19T07:16:00.247Z,13.65
2023-02-19T07:18:27.619Z,13.71
2023-02-19T07:20:54.464Z,13.98
2023-02-19T07:23:21.631Z,13.99
2023-02-19T07:25:48.494Z,14.25
2023-02-19T07:28:16.449Z,14.46
2023-02-19T07:30:44.341Z,14.45
2023-02-19T07:33:11.144Z,14.63
2023-02-19T07:35:37.937Z,14.94
2023-02-19T07:38:04.851Z,15.01
2023-02-19T07:40:32.622Z,15.18
2023-02-19T07:43:00.625Z,15.45
2023-02-19T07:45:27.424Z,15.47
2023-02-19T07:47:54.122Z,15.27
2023-02-19T07:50:20.995Z,15.53
2023-02-19T07:52:47.782Z,15.48
2023-02-19T07:55:14.402Z,15.72
2023-02-19T07:57:41.269Z,16.06
2023-02-19T08:00:08.251Z,15.91
2023-02-19T08:02:57.623Z,16.45
2023-02-19T08:05:24.536Z,16.38
2023-02-19T08:07:51.272Z,16.36
2023-02-19T08:10:36.460Z,16.65
2023-02-19T08:13:22.560Z,16.71
2023-02-19T08:16:07.541Z,16.22
2023-02-19T08:18:41.922Z,16.01
2023-02-19T08:21:09.022Z,16.34
2023-02-19T08:23:36.623Z,16.54
2023-02-19T08:26:03.784Z,16.69
2023-02-19T08:28:31.140Z,16.58
2023-02-19T08:31:08.344Z,17.12
2023-02-19T08:33:36.120Z,17.62
2023-02-19T08:36:06.673Z,17.40
2023-02-19T08:38:35.965Z,17.58
2023-02-19T08:41:12.994Z,17.92
2023-02-19T08:43:42.600Z,18.32
2023-02-19T08:46:11.710Z,18.65
2023-02-19T08:48:39.886Z,18.57
2023-02-19T08:51:09.793Z,18.93
2023-02-19T08:53:39.612Z,18.92
2023-02-19T08:56:07.601Z,18.98
2023-02-19T08:58:34.340Z,19.04
2023-02-19T09:01:01.320Z,18.93
2023-02-19T09:03:28.072Z,18.81
2023-02-19T09:05:54.924Z,18.83
2023-02-19T09:08:21.655Z,18.91
2023-02-19T09:11:01.805Z,19.25
2023-02-19T09:13:28.627Z,19.59
2023-02-19T09:15:57.187Z,19.50
2023-02-19T09:18:25.362Z,19.63
2023-02-19T09:20:52.278Z,19.26
2023-02-19T09:23:19.128Z,19.61
2023-02-19T09:25:45.951Z,19.51
2023-02-19T09:28:12.810Z,19.31
2023-02-19T09:30:39.612Z,20.04
2023-02-19T09:33:06.529Z,20.12
2023-02-19T09:35:33.306Z,19.86
2023-02-19T09:38:02.012Z,20.39
2023-02-19T09:40:30.408Z,20.64
2023-02-19T09:42:57.628Z,20.27
2023-02-19T09:45:26.293Z,19.85
2023-02-19T09:47:56.134Z,20.01
2023-02-19T09:50:36.924Z,20.56
2023-02-19T09:53:11.395Z,20.68
2023-02-19T09:55:43.691Z,21.11
2023-02-19T09:58:27.228Z,21.46
2023-02-19T10:00:57.081Z,21.14
2023-02-19T10:03:33.764Z,21.44
2023-02-19T10:06:24.714Z,20.42
2023-02-19T10:09:26.978Z,20.52
2023-02-19T10:11:59.014Z,20.79
2023-02-19T10:14:35.766Z,20.14
2023-02-19T10:17:05.436Z,20.52
2023-02-19T10:19:34.469Z,21.11
2023-02-19T10:22:04.230Z,21.10
2023-02-19T10:24:31.189Z,21.01
2023-02-19T10:26:58.045Z,21.21
2023-02-19T10:29:24.989Z,21.51
2023-02-19T10:32:24.082Z,21.45
2023-02-19T10:35:21.112Z,21.30
2023-02-19T10:37:50.920Z,20.85
2023-02-19T10:40:20.942Z,21.37
2023-02-19T10:42:54.077Z,21.39
2023-02-19T10:45:27.808Z,21.75
2023-02-19T10:47:54.778Z,21.76
2023-02-19T10:50:33.065Z,21.99
2023-02-19T10:53:02.070Z,21.07
2023-02-19T10:55:37.715Z,21.26
2023-02-19T10:58:29.330Z,21.91
2023-02-19T11:01:21.564Z,21.82
2023-02-19T11:03:50.976Z,21.79
2023-02-19T11:06:21.462Z,21.97
2023-02-19T11:09:00.041Z,22.11
2023-02-19T11:11:39.162Z,22.38
2023-02-19T11:14:15.840Z,21.75
2023-02-19T11:16:56.540Z,21.89
2023-02-19T11:19:37.760Z,22.56
2023-02-19T11:22:54.096Z,22.51
2023-02-19T11:25:25.628Z,22.32
2023-02-19T11:27:59.326Z,22.37
2023-02-19T11:30:35.556Z,22.77
2023-02-19T11:33:19.902Z,22.57
2023-02-19T11:35:47.475Z,22.51
2023-02-19T11:38:17.582Z,22.59
2023-02-19T11:41:15.144Z,23.06
2023-02-19T11:43:57.243Z,23.31
2023-02-19T11:46:49.021Z,23.46
2023-02-19T11:49:53.823Z,23.48
2023-02-19T11:52:26.912Z,23.33
2023-02-19T11:55:12.589Z,23.26
2023-02-19T11:58:01.705Z,23.51
2023-02-19T12:00:31.015Z,23.69
2023-02-19T12:03:38.874Z,23.77
2023-02-19T12:06:19.813Z,23.00
2023-02-19T12:08:55.684Z,23.61
2023-02-19T12:11:55.646Z,24.02
2023-02-19T12:14:22.444Z,24.20
2023-02-19T12:16:52.367Z,24.45
2023-02-19T12:19:42.258Z,24.90
2023-02-19T12:22:29.583Z,25.19
2023-02-19T12:25:49.215Z,25.35
2023-02-19T12:28:35.410Z,25.46
2023-02-19T12:31:47.485Z,25.82
2023-02-19T12:34:42.233Z,26.01
2023-02-19T12:37:10.036Z,26.17
2023-02-19T12:40:02.305Z,26.65
2023-02-19T12:42:56.755Z,26.70
2023-02-19T12:45:35.616Z,26.61
2023-02-19T12:48:10.886Z,26.38
2023-02-19T12:50:40.296Z,27.12
2023-02-19T12:53:31.750Z,25.35
2023-02-19T12:56:01.298Z,24.73
2023-02-19T12:58:39.560Z,24.61
2023-02-19T13:01:10.423Z,25.27
2023-02-19T13:04:04.939Z,27.06
2023-02-19T13:06:36.548Z,29.02
2023-02-19T13:09:13.734Z,28.92
2023-02-19T13:11:48.312Z,29.89
2023-02-19T13:14:25.379Z,25.56
2023-02-19T13:16:57.799Z,27.60
2023-02-19T13:19:24.811Z,28.67
2023-02-19T13:22:22.056Z,29.57
2023-02-19T13:24:50.665Z,30.29
2023-02-19T13:27:19.984Z,29.89
2023-02-19T13:30:12.101Z,29.78
2023-02-19T13:32:52.642Z,28.99
2023-02-19T13:35:32.538Z,29.18
2023-02-19T13:38:04.184Z,29.81
2023-02-19T13:40:37.003Z,30.85
2023-02-19T13:43:06.950Z,30.84
2023-02-19T13:45:45.911Z,31.61
2023-02-19T13:48:24.654Z,31.70
2023-02-19T13:51:17.350Z,31.37
2023-02-19T13:53:50.391Z,31.49
2023-02-19T13:56:35.541Z,30.42
2023-02-19T13:59:30.426Z,29.76
2023-02-19T14:01:57.232Z,28.35
2023-02-19T14:04:51.942Z,27.41
2023-02-19T14:07:18.716Z,27.04
2023-02-19T14:09:47.029Z,26.15
2023-02-19T14:12:15.725Z,25.83
2023-02-19T14:14:44.903Z,25.80
2023-02-19T14:17:26.497Z,25.42
2023-02-19T14:19:53.275Z,25.68
2023-02-19T14:22:56.925Z,25.56
2023-02-19T14:25:38.454Z,25.53
2023-02-19T14:28:16.817Z,25.34
2023-02-19T14:31:10.468Z,25.20
2023-02-19T14:33:40.272Z,25.16
2023-02-19T14:36:44.129Z,25.04
2023-02-19T14:39:24.569Z,25.32
2023-02-19T14:41:58.916Z,25.19
2023-02-19T14:44:29.274Z,24.91
2023-02-19T14:47:05.479Z,24.84
2023-02-19T14:49:45.948Z,24.71
2023-02-19T14:52:25.106Z,24.75
2023-02-19T14:54:59.916Z,24.71
2023-02-19T14:57:41.642Z,24.69
2023-02-19T15:00:27.144Z,24.78
2023-02-19T15:02:56.733Z,24.66
2023-02-19T15:05:30.064Z,23.99
2023-02-19T15:08:02.842Z,23.98
2023-02-19T15:10:32.256Z,23.62
2023-02-19T15:13:06.021Z,23.70
2023-02-19T15:15:40.850Z,23.47
2023-02-19T15:18:07.613Z,23.29
2023-02-19T15:20:37.234Z,23.38
2023-02-19T15:23:07.707Z,23.18
2023-02-19T15:25:39.519Z,23.08
2023-02-19T15:28:21.101Z,23.25
2023-02-19T15:30:48.008Z,23.00
2023-02-19T15:33:19.928Z,22.88
2023-02-19T15:35:55.964Z,22.89
2023-02-19T15:38:23.567Z,22.93
2023-02-19T15:40:50.577Z,22.62
2023-02-19T15:43:25.200Z,22.51
2023-02-19T15:45:57.769Z,22.53
2023-02-19T15:48:30.853Z,22.41
2023-02-19T15:51:09.426Z,22.39
2023-02-19T15:53:45.426Z,22.26
2023-02-19T15:56:28.274Z,22.44
2023-02-19T15:59:02.139Z,22.33
2023-02-19T16:01:34.452Z,22.28
2023-02-19T16:04:03.323Z,22.24
2023-02-19T16:06:30.629Z,22.34
2023-02-19T16:09:19.401Z,21.84
2023-02-19T16:11:54.479Z,22.15
2023-02-19T16:14:32.996Z,22.14
2023-02-19T16:17:12.315Z,21.70
2023-02-19T16:19:45.337Z,21.70
2023-02-19T16:22:16.145Z,21.66
2023-02-19T16:24:49.321Z,21.59
2023-02-19T16:27:30.659Z,21.39
2023-02-19T16:29:58.453Z,20.86
2023-02-19T16:32:25.264Z,21.02
2023-02-19T16:34:52.764Z,20.74
2023-02-19T16:37:59.137Z,21.27
2023-02-19T16:40:55.179Z,21.27
2023-02-19T16:43:30.492Z,21.29
2023-02-19T16:45:58.923Z,20.80
2023-02-19T16:48:26.171Z,20.53
2023-02-19T16:50:53.054Z,21.01
2023-02-19T16:53:24.829Z,20.72
2023-02-19T16:55:52.363Z,20.66
2023-02-19T16:58:19.320Z,20.44
2023-02-19T17:00:46.339Z,20.52
2023-02-19T17:03:19.831Z,20.65
2023-02-19T17:05:47.739Z,20.46
2023-02-19T17:08:20.373Z,20.43
2023-02-19T17:10:47.238Z,20.05
2023-02-19T17:13:13.955Z,20.14
2023-02-19T17:15:40.804Z,20.12
2023-02-19T17:18:10.617Z,20.03
2023-02-19T17:20:38.976Z,20.18
2023-02-19T17:23:05.798Z,20.20
2023-02-19T17:25:32.775Z,20.12
2023-02-19T17:27:59.581Z,20.25
2023-02-19T17:30:31.482Z,20.15
2023-02-19T17:32:58.380Z,19.77
2023-02-19T17:35:25.839Z,19.70
2023-02-19T17:37:53.537Z,19.90
2023-02-19T17:40:33.048Z,19.59
2023-02-19T17:43:00.845Z,19.55
2023-02-19T17:45:27.827Z,19.88
2023-02-19T17:47:54.669Z,19.91
2023-02-19T17:50:24.041Z,19.99
2023-02-19T17:52:50.765Z,19.78
2023-02-19T17:55:18.454Z,19.78
2023-02-19T17:57:49.640Z,19.50
2023-02-19T18:00:25.786Z,19.52
2023-02-19T18:02:53.019Z,18.88
2023-02-19T18:05:20.175Z,18.93
2023-02-19T18:07:48.234Z,18.98
2023-02-19T18:10:20.522Z,18.66
2023-02-19T18:12:47.635Z,18.75
2023-02-19T18:15:20.621Z,18.85
2023-02-19T18:17:47.453Z,19.11
2023-02-19T18:20:26.517Z,19.38
2023-02-19T18:22:54.399Z,19.37
2023-02-19T18:25:21.907Z,19.23
2023-02-19T18:27:49.405Z,19.02
2023-02-19T18:30:19.126Z,19.41
2023-02-19T18:32:50.064Z,19.15
2023-02-19T18:35:19.543Z,19.22
2023-02-19T18:37:52.956Z,19.46
2023-02-19T18:40:26.018Z,19.13
2023-02-19T18:42:53.391Z,18.89
2023-02-19T18:45:20.105Z,19.23
2023-02-19T18:47:48.557Z,19.17
2023-02-19T18:50:16.553Z,18.87
2023-02-19T18:52:43.298Z,19.00
2023-02-19T18:55:10.966Z,19.25
2023-02-19T18:57:37.872Z,19.23
2023-02-19T19:00:09.123Z,19.09
2023-02-19T19:02:48.263Z,19.00
2023-02-19T19:05:22.710Z,19.13
2023-02-19T19:07:51.466Z,19.29
2023-02-19T19:10:18.911Z,19.22
2023-02-19T19:12:45.817Z,19.09
2023-02-19T19:15:12.760Z,19.02
2023-02-19T19:17:40.526Z,18.90
2023-02-19T19:20:08.463Z,18.81
2023-02-19T19:22:35.601Z,18.65
2023-02-19T19:25:02.405Z,18.82
2023-02-19T19:27:30.188Z,18.45
2023-02-19T19:29:58.159Z,18.59
2023-02-19T19:32:24.985Z,18.45
2023-02-19T19:34:51.985Z,18.11
2023-02-19T19:37:18.875Z,18.29
2023-02-19T19:39:45.697Z,18.12
2023-02-19T19:42:12.462Z,18.33
2023-02-19T19:44:39.884Z,18.28
2023-02-19T19:47:06.551Z,18.37
2023-02-19T19:49:33.538Z,18.25
2023-02-19T19:52:01.261Z,18.27
2023-02-19T19:54:28.926Z,18.07
2023-02-19T19:56:55.830Z,18.12
2023-02-19T19:59:23.138Z,17.97
2023-02-19T20:01:52.240Z,18.17
2023-02-19T20:04:21.828Z,18.36
2023-02-19T20:06:48.813Z,18.04
2023-02-19T20:09:16.630Z,18.24
2023-02-19T20:11:53.743Z,18.14
2023-02-19T20:14:23.487Z,18.12
2023-02-19T20:16:51.691Z,18.10
2023-02-19T20:19:20.250Z,17.80
2023-02-19T20:21:49.483Z,17.70
2023-02-19T20:24:26.026Z,17.87
2023-02-19T20:27:01.938Z,17.53
2023-02-19T20:29:33.761Z,17.78
2023-02-19T20:32:03.595Z,17.60
2023-02-19T20:34:30.796Z,17.55
2023-02-19T20:36:57.970Z,17.59
2023-02-19T20:39:28.887Z,17.35
2023-02-19T20:41:56.918Z,17.32
2023-02-19T20:44:24.580Z,17.45
2023-02-19T20:46:53.488Z,16.66
2023-02-19T20:49:24.913Z,16.93
2023-02-19T20:52:01.040Z,17.45
2023-02-19T20:54:30.833Z,17.42
2023-02-19T20:57:00.117Z,17.30
2023-02-19T20:59:31.041Z,17.43
2023-02-19T21:01:59.150Z,17.12
2023-02-19T21:04:26.441Z,17.11
2023-02-19T21:06:53.650Z,17.12
2023-02-19T21:09:21.619Z,17.23
2023-02-19T21:11:49.245Z,16.83
2023-02-19T21:14:16.228Z,16.94
2023-02-19T21:16:43.481Z,17.03
2023-02-19T21:19:10.320Z,17.11
2023-02-19T21:21:39.372Z,17.02
2023-02-19T21:24:06.845Z,16.48
2023-02-19T21:26:36.506Z,16.41
2023-02-19T21:29:05.799Z,16.77
2023-02-19T21:31:37.933Z,16.46
2023-02-19T21:34:07.523Z,16.98
2023-02-19T21:36:34.599Z,16.27
2023-02-19T21:39:01.421Z,16.32
2023-02-19T21:41:28.608Z,16.19
2023-02-19T21:43:55.806Z,16.15
2023-02-19T21:46:23.645Z,16.08
2023-02-19T21:48:52.555Z,16.40
2023-02-19T21:51:21.021Z,16.42
2023-02-19T21:53:47.942Z,16.35
2023-02-19T21:56:23.319Z,16.33
2023-02-19T21:58:50.121Z,16.64
2023-02-19T22:01:25.761Z,16.06
2023-02-19T22:03:52.758Z,16.15
2023-02-19T22:06:22.507Z,15.99
2023-02-19T22:08:49.429Z,15.41
2023-02-19T22:11:16.751Z,15.95
2023-02-19T22:13:43.662Z,15.58
2023-02-19T22:16:11.106Z,15.96
2023-02-19T22:18:37.950Z,15.93
2023-02-19T22:21:06.532Z,15.86
2023-02-19T22:23:33.280Z,15.16
2023-02-19T22:26:00.135Z,15.02
2023-02-19T22:28:26.835Z,15.31
2023-02-19T22:30:53.556Z,15.35
2023-02-19T22:33:20.496Z,15.23
2023-02-19T22:35:47.169Z,15.40
2023-02-19T22:38:13.937Z,15.35
2023-02-19T22:40:40.690Z,15.31
2023-02-19T22:43:07.346Z,15.14
2023-02-19T22:45:34.335Z,14.99
2023-02-19T22:48:02.080Z,14.82
2023-02-19T22:50:28.832Z,15.04
2023-02-19T22:52:55.792Z,15.24
2023-02-19T22:55:22.541Z,15.41
2023-02-19T22:57:49.346Z,15.27
2023-02-19T23:00:19.275Z,14.82
2023-02-19T23:02:48.293Z,15.25
2023-02-19T23:05:16.529Z,14.88
2023-02-19T23:07:44.810Z,14.83
2023-02-19T23:10:12.933Z,14.96
2023-02-19T23:12:41.120Z,14.95
2023-02-19T23:15:09.311Z,14.70
2023-02-19T23:17:36.392Z,14.99
2023-02-19T23:20:03.924Z,15.30
2023-02-19T23:22:30.776Z,15.02
2023-02-19T23:24:57.621Z,15.31
2023-02-19T23:27:26.682Z,14.76
2023-02-19T23:29:53.330Z,14.99
2023-02-19T23:32:21.052Z,14.92
2023-02-19T23:34:48.139Z,15.05
2023-02-19T23:37:15.434Z,15.15
2023-02-19T23:39:42.343Z,14.98
2023-02-19T23:42:15.082Z,14.87
2023-02-19T23:44:42.341Z,14.74
2023-02-19T23:47:09.572Z,15.11
2023-02-19T23:49:36.487Z,14.64
2023-02-19T23:52:03.540Z,14.97
2023-02-19T23:54:30.464Z,15.10
2023-02-19T23:56:58.451Z,14.90
2023-02-19T23:59:25.213Z,15.02
